createdAt,value
2023-01-02T00:00:15.802Z,100449.19
2023-01-02T00:02:48.554Z,100459.91
2023-01-02T00:05:17.100Z,100444.78
2023-01-02T00:07:45.410Z,100444.53
2023-01-02T00:10:14.109Z,100453.41
2023-01-02T00:12:43.736Z,100445.78
2023-01-02T00:15:14.033Z,100466.22
2023-01-02T00:17:42.573Z,100460.59
2023-01-02T00:20:11.624Z,100455.50
2023-01-02T00:22:40.481Z,100477.50
2023-01-02T00:25:28.370Z,100477.81
2023-01-02T00:28:00.160Z,100473.41
2023-01-02T00:30:35.732Z,100471.47
2023-01-02T00:33:06.495Z,100477.50
2023-01-02T00:35:35.078Z,100486.25
2023-01-02T00:38:03.720Z,100485.13
2023-01-02T00:40:33.330Z,100488.66
2023-01-02T00:43:02.938Z,100487.66
2023-01-02T00:45:32.775Z,100491.06
2023-01-02T00:48:13.843Z,100499.78
2023-01-02T00:50:42.604Z,100498.25
2023-01-02T00:53:10.928Z,100509.81
2023-01-02T00:56:03.340Z,100504.31
2023-01-02T00:58:32.453Z,100510.50
2023-01-02T01:01:04.963Z,100505.44
2023-01-02T01:03:33.532Z,100509.09
2023-01-02T01:06:08.329Z,100515.44
2023-01-02T01:08:37.394Z,100516.41
2023-01-02T01:11:09.429Z,100524.31
2023-01-02T01:13:56.545Z,100525.88
2023-01-02T01:16:27.417Z,100532.50
2023-01-02T01:18:57.576Z,100532.91
2023-01-02T01:21:26.036Z,100537.16
2023-01-02T01:23:55.901Z,100548.84
2023-01-02T01:26:30.021Z,100550.81
2023-01-02T01:28:58.626Z,100554.06
2023-01-02T01:31:28.761Z,100561.22
2023-01-02T01:33:57.434Z,100583.88
2023-01-02T01:36:29.968Z,100574.69
2023-01-02T01:39:01.573Z,100572.56
2023-01-02T01:41:30.466Z,100579.75
2023-01-02T01:44:00.698Z,100581.84
2023-01-02T01:46:35.289Z,100591.84
2023-01-02T01:49:08.317Z,100591.00
2023-01-02T01:51:43.143Z,100587.59
2023-01-02T01:54:16.759Z,100595.78
2023-01-02T01:56:48.979Z,100597.59
2023-01-02T01:59:18.109Z,100604.50
2023-01-02T02:01:50.412Z,100606.22
2023-01-02T02:04:21.837Z,100609.84
2023-01-02T02:06:54.665Z,100611.56
2023-01-02T02:09:28.814Z,100620.31
2023-01-02T02:11:57.479Z,100612.00
2023-01-02T02:14:25.654Z,100621.72
2023-01-02T02:17:02.143Z,100630.34
2023-01-02T02:20:08.611Z,100623.16
2023-01-02T02:23:10.816Z,100624.41
2023-01-02T02:26:20.227Z,100649.88
2023-01-02T02:29:15.145Z,100653.94
2023-01-02T02:31:58.642Z,100656.03
2023-01-02T02:34:37.007Z,100654.72
2023-01-02T02:37:15.590Z,100648.94
2023-01-02T02:39:55.933Z,100660.03
2023-01-02T02:42:33.130Z,100659.66
2023-01-02T02:45:11.459Z,100661.88
2023-01-02T02:47:48.489Z,100673.81
2023-01-02T02:50:24.650Z,100671.53
2023-01-02T02:52:58.474Z,100675.31
2023-01-02T02:55:31.711Z,100682.50
2023-01-02T02:58:00.868Z,100687.50
2023-01-02T03:00:29.191Z,100687.78
2023-01-02T03:02:59.658Z,100692.84
2023-01-02T03:05:35.035Z,100692.84
2023-01-02T03:08:12.159Z,100699.06
2023-01-02T03:10:48.239Z,100705.25
2023-01-02T03:13:27.089Z,100709.63
2023-01-02T03:16:06.446Z,100709.03
2023-01-02T03:18:39.776Z,100715.34
2023-01-02T03:21:11.799Z,100717.81
2023-01-02T03:23:44.644Z,100716.25
2023-01-02T03:26:14.647Z,100727.19
2023-01-02T03:28:47.009Z,100711.41
2023-01-02T03:31:20.380Z,100727.19
2023-01-02T03:33:54.490Z,100716.25
2023-01-02T03:36:25.697Z,100725.13
2023-01-02T03:39:00.633Z,100724.28
2023-01-02T03:41:34.551Z,100730.72
2023-01-02T03:44:04.376Z,100737.19
2023-01-02T03:46:35.875Z,100747.25
2023-01-02T03:49:08.476Z,100741.06
2023-01-02T03:51:37.235Z,100752.00
2023-01-02T03:54:07.196Z,100744.25
2023-01-02T03:56:49.671Z,100737.19
2023-01-02T03:59:27.076Z,100744.25
2023-01-02T04:02:01.360Z,100744.84
2023-01-02T04:04:40.688Z,100753.84
2023-01-02T04:07:15.630Z,100768.03
2023-01-02T04:09:46.165Z,100767.34
2023-01-02T04:12:17.797Z,100777.41
2023-01-02T04:14:50.010Z,100775.97
2023-01-02T04:17:21.720Z,100785.47
2023-01-02T04:19:56.644Z,100784.63
2023-01-02T04:22:29.277Z,100785.69
2023-01-02T04:25:02.801Z,100787.66
2023-01-02T04:27:36.371Z,100787.75
2023-01-02T04:30:05.291Z,100800.41
2023-01-02T04:32:42.841Z,100795.28
2023-01-02T04:35:17.054Z,100797.03
2023-01-02T04:37:47.100Z,100804.91
2023-01-02T04:40:21.046Z,100804.91
2023-01-02T04:42:49.232Z,100815.59
2023-01-02T04:45:17.912Z,100819.81
2023-01-02T04:47:46.514Z,100827.97
2023-01-02T04:50:16.320Z,100836.00
2023-01-02T04:52:44.887Z,100850.19
2023-01-02T04:55:13.037Z,100848.16
2023-01-02T04:57:41.077Z,100852.28
2023-01-02T05:00:10.427Z,100852.88
2023-01-02T05:02:39.445Z,100857.00
2023-01-02T05:05:09.249Z,100866.97
2023-01-02T05:07:39.721Z,100859.94
2023-01-02T05:10:09.338Z,100865.75
2023-01-02T05:12:39.154Z,100863.09
2023-01-02T05:15:09.570Z,100871.34
2023-01-02T05:17:41.867Z,100879.00
2023-01-02T05:20:12.211Z,100866.25
2023-01-02T05:22:59.591Z,100867.09
2023-01-02T05:25:28.828Z,100872.31
2023-01-02T05:27:57.301Z,100881.06
2023-01-02T05:30:28.747Z,100876.94
2023-01-02T05:32:57.335Z,100891.28
2023-01-02T05:35:31.853Z,100887.16
2023-01-02T05:38:02.493Z,100887.88
2023-01-02T05:40:31.134Z,100887.16
2023-01-02T05:43:00.092Z,100892.97
2023-01-02T05:45:28.143Z,100903.28
2023-01-02T05:47:57.008Z,100904.72
2023-01-02T05:50:25.088Z,100892.94
2023-01-02T05:52:53.279Z,100909.19
2023-01-02T05:55:23.043Z,100910.31
2023-01-02T05:57:56.497Z,100917.06
2023-01-02T06:00:24.963Z,100924.25
2023-01-02T06:02:53.253Z,100914.25
2023-01-02T06:05:21.502Z,100922.25
2023-01-02T06:07:50.048Z,100928.06
2023-01-02T06:10:18.456Z,100930.00
2023-01-02T06:12:48.062Z,100930.97
2023-01-02T06:15:16.255Z,100941.91
2023-01-02T06:17:44.532Z,100942.97
2023-01-02T06:20:13.062Z,100944.78
2023-01-02T06:22:41.340Z,100948.50
2023-01-02T06:25:10.182Z,100953.84
2023-01-02T06:27:38.258Z,100961.25
2023-01-02T06:30:09.424Z,100969.34
2023-01-02T06:32:37.411Z,100974.81
2023-01-02T06:35:06.107Z,100974.94
2023-01-02T06:37:34.216Z,100976.75
2023-01-02T06:40:02.404Z,100981.84
2023-01-02T06:42:32.703Z,100982.34
2023-01-02T06:45:10.828Z,100983.13
2023-01-02T06:47:39.561Z,100993.56
2023-01-02T06:50:09.112Z,101001.88
2023-01-02T06:52:37.679Z,101004.38
2023-01-02T06:55:06.464Z,101003.72
2023-01-02T06:57:34.519Z,101002.97
2023-01-02T07:00:02.858Z,101014.72
2023-01-02T07:02:32.558Z,101024.78
2023-01-02T07:05:01.769Z,101019.66
2023-01-02T07:07:30.315Z,101032.03
2023-01-02T07:10:01.021Z,101031.19
2023-01-02T07:12:30.569Z,101040.06
2023-01-02T07:14:58.804Z,101040.28
2023-01-02T07:17:27.593Z,101044.53
2023-01-02T07:20:01.960Z,101057.03
2023-01-02T07:22:31.029Z,101056.06
2023-01-02T07:25:02.157Z,101061.66
2023-01-02T07:27:33.751Z,101071.03
2023-01-02T07:30:03.438Z,101072.38
2023-01-02T07:32:32.096Z,101080.81
2023-01-02T07:35:01.809Z,101081.34
2023-01-02T07:37:30.039Z,101098.00
2023-01-02T07:39:58.361Z,101089.00
2023-01-02T07:42:26.602Z,101094.34
2023-01-02T07:44:55.158Z,101101.41
2023-01-02T07:47:23.387Z,101111.34
2023-01-02T07:49:51.416Z,101113.28
2023-01-02T07:52:21.061Z,101117.03
2023-01-02T07:54:49.798Z,101123.22
2023-01-02T07:57:18.117Z,101132.06
2023-01-02T07:59:47.217Z,101132.72
2023-01-02T08:02:15.553Z,101146.78
2023-01-02T08:04:43.945Z,101148.63
2023-01-02T08:07:12.178Z,101152.25
2023-01-02T08:09:41.763Z,101163.78
2023-01-02T08:12:10.048Z,101168.50
2023-01-02T08:14:39.765Z,101171.41
2023-01-02T08:17:08.258Z,101182.41
2023-01-02T08:19:36.594Z,101191.44
2023-01-02T08:22:06.854Z,101189.00
2023-01-02T08:24:35.256Z,101199.03
2023-01-02T08:27:05.158Z,101202.78
2023-01-02T08:29:33.278Z,101202.16
2023-01-02T08:32:05.324Z,101207.38
2023-01-02T08:34:35.177Z,101219.75
2023-01-02T08:37:03.227Z,101222.53
2023-01-02T08:39:31.358Z,101225.09
2023-01-02T08:41:59.562Z,101230.34
2023-01-02T08:44:29.175Z,101228.53
2023-01-02T08:46:57.369Z,101241.75
2023-01-02T08:49:25.475Z,101245.16
2023-01-02T08:51:53.718Z,101256.59
2023-01-02T08:54:22.048Z,101258.75
2023-01-02T08:56:50.332Z,101261.59
2023-01-02T08:59:18.337Z,101268.13
2023-01-02T09:01:50.887Z,101267.69
2023-01-02T09:04:20.070Z,101270.34
2023-01-02T09:06:48.197Z,101281.66
2023-01-02T09:09:18.439Z,101285.25
2023-01-02T09:11:50.776Z,101288.31
2023-01-02T09:14:20.117Z,101290.25
2023-01-02T09:16:48.763Z,101299.09
2023-01-02T09:19:18.677Z,101307.94
2023-01-02T09:21:49.466Z,101309.09
2023-01-02T09:24:17.745Z,101315.31
2023-01-02T09:26:46.877Z,101322.56
2023-01-02T09:29:16.578Z,101321.59
2023-01-02T09:31:45.092Z,101327.88
2023-01-02T09:34:13.541Z,101328.06
2023-01-02T09:36:43.284Z,101329.25
2023-01-02T09:39:12.853Z,101334.91
2023-01-02T09:41:46.502Z,101336.16
2023-01-02T09:44:18.241Z,101349.69
2023-01-02T09:46:50.932Z,101347.19
2023-01-02T09:49:23.250Z,101350.94
2023-01-02T09:51:52.862Z,101363.78
2023-01-02T09:54:26.547Z,101369.50
2023-01-02T09:57:12.867Z,101371.63
2023-01-02T09:59:48.174Z,101385.13
2023-01-02T10:02:29.004Z,101383.41
2023-01-02T10:05:14.782Z,101385.34
2023-01-02T10:07:52.193Z,101394.19
2023-01-02T10:10:30.502Z,101404.84
2023-01-02T10:13:05.995Z,101409.09
2023-01-02T10:15:34.959Z,101403.19
2023-01-02T10:18:15.204Z,101411.56
2023-01-02T10:20:50.356Z,101407.38
2023-01-02T10:23:25.251Z,101410.47
2023-01-02T10:25:59.131Z,101408.50
2023-01-02T10:28:35.535Z,101412.00
2023-01-02T10:31:08.916Z,101412.78
2023-01-02T10:33:45.568Z,101422.38
2023-01-02T10:36:24.392Z,101425.41
2023-01-02T10:38:55.341Z,101427.28
2023-01-02T10:41:23.745Z,101433.94
2023-01-02T10:43:57.425Z,101426.06
2023-01-02T10:46:29.707Z,101428.13
2023-01-02T10:48:58.939Z,101422.00
2023-01-02T10:51:28.503Z,101432.53
2023-01-02T10:54:07.072Z,101433.00
2023-01-02T10:56:38.352Z,101431.09
2023-01-02T10:59:23.251Z,101435.56
2023-01-02T11:01:54.376Z,101433.34
2023-01-02T11:04:25.638Z,101430.69
2023-01-02T11:06:57.738Z,101427.03
2023-01-02T11:09:29.711Z,101437.41
2023-01-02T11:12:09.854Z,101440.72
2023-01-02T11:14:39.118Z,101440.19
2023-01-02T11:17:13.774Z,101439.00
2023-01-02T11:19:44.172Z,101440.06
2023-01-02T11:22:15.410Z,101448.16
2023-01-02T11:25:00.355Z,101446.91
2023-01-02T11:27:32.234Z,101450.09
2023-01-02T11:30:01.381Z,101445.38
2023-01-02T11:32:30.960Z,101441.06
2023-01-02T11:35:02.467Z,101446.00
2023-01-02T11:37:30.675Z,101441.16
2023-01-02T11:40:02.629Z,101445.09
2023-01-02T11:42:55.078Z,101438.56
2023-01-02T11:45:23.594Z,101447.13
2023-01-02T11:47:54.114Z,101454.41
2023-01-02T11:50:25.753Z,101451.41
2023-01-02T11:52:59.274Z,101459.19
2023-01-02T11:55:39.127Z,101465.91
2023-01-02T11:58:17.921Z,101464.97
2023-01-02T12:00:50.415Z,101472.03
2023-01-02T12:03:22.756Z,101475.88
2023-01-02T12:06:14.420Z,101481.59
2023-01-02T12:08:53.673Z,101483.81
2023-01-02T12:11:42.050Z,101487.25
2023-01-02T12:14:18.118Z,101492.72
2023-01-02T12:16:57.354Z,101493.81
2023-01-02T12:19:50.595Z,101493.28
2023-01-02T12:22:42.441Z,101492.53
2023-01-02T12:25:45.821Z,101496.41
2023-01-02T12:28:32.068Z,101503.88
2023-01-02T12:31:16.708Z,101498.91
2023-01-02T12:33:53.793Z,101503.59
2023-01-02T12:36:53.016Z,101503.59
2023-01-02T12:39:50.630Z,101498.69
2023-01-02T12:42:34.077Z,101495.97
2023-01-02T12:45:03.617Z,101489.59
2023-01-02T12:47:48.256Z,101497.09
2023-01-02T12:50:37.483Z,101498.81
2023-01-02T12:53:26.246Z,101496.13
2023-01-02T12:56:06.880Z,101487.84
2023-01-02T12:58:49.781Z,101493.00
2023-01-02T13:01:24.475Z,101493.44
2023-01-02T13:03:59.103Z,101495.16
2023-01-02T13:06:44.907Z,101495.78
2023-01-02T13:09:23.018Z,101499.84
2023-01-02T13:12:01.510Z,101497.28
2023-01-02T13:14:37.004Z,101496.19
2023-01-02T13:17:32.491Z,101498.84
2023-01-02T13:20:06.642Z,101504.94
2023-01-02T13:22:42.142Z,101506.69
2023-01-02T13:25:16.814Z,101512.63
2023-01-02T13:27:47.687Z,101509.03
2023-01-02T13:30:45.007Z,101497.44
2023-01-02T13:33:24.738Z,101505.38
2023-01-02T13:35:53.572Z,101511.56
2023-01-02T13:38:27.697Z,101507.38
2023-01-02T13:40:58.655Z,101505.06
2023-01-02T13:43:31.945Z,101504.53
2023-01-02T13:46:01.468Z,101504.63
2023-01-02T13:48:48.311Z,101509.91
2023-01-02T13:51:22.832Z,101503.75
2023-01-02T13:53:52.843Z,101506.34
2023-01-02T13:56:24.142Z,101505.19
2023-01-02T13:59:00.104Z,101504.88
2023-01-02T14:02:04.524Z,101505.00
2023-01-02T14:04:42.327Z,101512.22
2023-01-02T14:07:49.648Z,101510.38
2023-01-02T14:10:36.588Z,101519.28
2023-01-02T14:13:10.288Z,101517.72
2023-01-02T14:16:14.136Z,101525.16
2023-01-02T14:18:46.577Z,101530.28
2023-01-02T14:21:21.094Z,101524.69
2023-01-02T14:24:16.060Z,101519.53
2023-01-02T14:26:43.158Z,101520.28
2023-01-02T14:29:17.514Z,101525.41
2023-01-02T14:31:48.100Z,101531.16
2023-01-02T14:34:25.795Z,101523.94
2023-01-02T14:36:58.807Z,101524.19
2023-01-02T14:39:30.662Z,101531.59
2023-01-02T14:42:31.779Z,101535.81
2023-01-02T14:45:06.836Z,101534.28
2023-01-02T14:47:39.178Z,101528.16
2023-01-02T14:50:14.967Z,101541.38
2023-01-02T14:52:48.562Z,101538.13
2023-01-02T14:55:20.282Z,101539.06
2023-01-02T14:57:50.407Z,101548.66
2023-01-02T15:00:25.266Z,101547.94
2023-01-02T15:02:59.617Z,101544.72
2023-01-02T15:05:36.831Z,101557.22
2023-01-02T15:08:12.267Z,101549.31
2023-01-02T15:10:56.644Z,101545.69
2023-01-02T15:13:27.495Z,101557.13
2023-01-02T15:16:01.254Z,101568.81
2023-01-02T15:18:33.370Z,101560.25
2023-01-02T15:21:08.843Z,101568.47
2023-01-02T15:23:45.463Z,101573.56
2023-01-02T15:26:34.331Z,101558.00
2023-01-02T15:29:05.241Z,101570.25
2023-01-02T15:31:34.225Z,101566.56
2023-01-02T15:34:03.176Z,101569.25
2023-01-02T15:36:38.992Z,101577.66
2023-01-02T15:39:17.178Z,101565.28
2023-01-02T15:41:50.437Z,101566.00
2023-01-02T15:44:41.521Z,101562.88
2023-01-02T15:47:11.987Z,101561.28
2023-01-02T15:49:44.349Z,101561.41
2023-01-02T15:52:23.910Z,101560.84
2023-01-02T15:54:55.785Z,101568.31
2023-01-02T15:57:32.159Z,101564.94
2023-01-02T16:00:03.296Z,101562.84
2023-01-02T16:02:43.548Z,101573.44
2023-01-02T16:05:15.647Z,101578.94
2023-01-02T16:07:52.736Z,101579.84
2023-01-02T16:10:26.131Z,101584.13
2023-01-02T16:12:57.690Z,101580.31
2023-01-02T16:15:30.456Z,101579.78
2023-01-02T16:17:59.453Z,101574.88
2023-01-02T16:20:29.839Z,101572.59
2023-01-02T16:23:01.717Z,101570.56
2023-01-02T16:25:34.671Z,101570.94
2023-01-02T16:28:35.964Z,101568.91
2023-01-02T16:31:14.597Z,101575.09
2023-01-02T16:33:43.522Z,101570.22
2023-01-02T16:36:22.814Z,101567.03
2023-01-02T16:38:54.907Z,101577.72
2023-01-02T16:42:22.994Z,101577.19
2023-01-02T16:44:56.495Z,101586.81
2023-01-02T16:47:26.182Z,101580.69
2023-01-02T16:49:54.695Z,101581.72
2023-01-02T16:52:22.932Z,101585.44
2023-01-02T16:54:54.246Z,101590.63
2023-01-02T16:57:33.444Z,101598.91
2023-01-02T17:02:49.461Z,101600.09
2023-01-02T17:05:21.622Z,101600.22
2023-01-02T17:07:49.943Z,101599.38
2023-01-02T17:10:17.996Z,101590.63
2023-01-02T17:12:46.093Z,101601.84
2023-01-02T17:15:17.225Z,101603.53
2023-01-02T17:17:45.387Z,101610.19
2023-01-02T17:20:14.486Z,101605.59
2023-01-02T17:22:43.452Z,101603.66
2023-01-02T17:25:15.180Z,101598.31
2023-01-02T17:27:44.147Z,101611.22
2023-01-02T17:30:14.254Z,101613.66
2023-01-02T17:32:45.104Z,101622.16
2023-01-02T17:35:13.948Z,101616.38
2023-01-02T17:37:44.631Z,101616.75
2023-01-02T17:40:14.727Z,101616.16
2023-01-02T17:42:42.915Z,101623.59
2023-01-02T17:45:12.463Z,101631.19
2023-01-02T17:50:30.918Z,101631.16
2023-01-02T17:52:59.986Z,101622.56
2023-01-02T17:55:28.242Z,101622.75
2023-01-02T17:57:56.584Z,101626.63
2023-01-02T18:00:24.851Z,101629.53
2023-01-02T18:02:53.760Z,101627.38
2023-01-02T18:05:23.424Z,101625.91
2023-01-02T18:07:53.084Z,101614.66
2023-01-02T18:10:22.304Z,101626.22
2023-01-02T18:12:52.922Z,101636.00
2023-01-02T18:15:23.507Z,101634.19
2023-01-02T18:17:51.860Z,101639.50
2023-01-02T18:20:22.986Z,101636.94
2023-01-02T18:22:52.716Z,101640.47
2023-01-02T18:25:24.579Z,101646.47
2023-01-02T18:27:54.362Z,101648.97
2023-01-02T18:30:25.098Z,101649.13
2023-01-02T18:33:04.150Z,101655.56
2023-01-02T18:35:56.896Z,101646.56
2023-01-02T18:38:33.240Z,101650.69
2023-01-02T18:41:01.722Z,101646.00
2023-01-02T18:43:35.983Z,101649.25
2023-01-02T18:46:16.497Z,101648.22
2023-01-02T18:48:45.004Z,101644.38
2023-01-02T18:51:18.949Z,101638.88
2023-01-02T18:53:59.255Z,101648.56
2023-01-02T18:56:32.394Z,101643.94
2023-01-02T18:59:04.610Z,101645.75
2023-01-02T19:01:37.070Z,101643.00
2023-01-02T19:04:29.059Z,101643.53
2023-01-02T19:07:00.803Z,101645.06
2023-01-02T19:09:33.129Z,101641.50
2023-01-02T19:12:36.182Z,101651.94
2023-01-02T19:15:37.111Z,101646.38
2023-01-02T19:18:26.796Z,101634.78
2023-01-02T19:21:00.585Z,101640.09
2023-01-02T19:23:31.532Z,101636.50
2023-01-02T19:26:19.799Z,101629.44
2023-01-02T19:28:56.849Z,101642.00
2023-01-02T19:31:25.688Z,101626.88
2023-01-02T19:34:00.644Z,101631.44
2023-01-02T19:36:40.302Z,101623.63
2023-01-02T19:39:27.204Z,101627.22
2023-01-02T19:42:29.164Z,101622.25
2023-01-02T19:44:58.984Z,101634.97
2023-01-02T19:47:29.506Z,101638.53
2023-01-02T19:49:58.607Z,101633.41
2023-01-02T19:52:28.523Z,101627.28
2023-01-02T19:54:57.307Z,101629.09
2023-01-02T19:57:27.524Z,101628.16
2023-01-02T19:59:57.349Z,101636.66
2023-01-02T20:02:26.594Z,101633.50
2023-01-02T20:04:56.554Z,101632.19
2023-01-02T20:07:25.984Z,101632.56
2023-01-02T20:09:54.546Z,101632.03
2023-01-02T20:12:35.328Z,101623.63
2023-01-02T20:15:10.154Z,101635.63
2023-01-02T20:17:39.964Z,101636.00
2023-01-02T20:20:11.120Z,101632.91
2023-01-02T20:22:39.327Z,101634.25
2023-01-02T20:25:08.750Z,101629.41
2023-01-02T20:27:39.608Z,101631.63
2023-01-02T20:30:10.957Z,101618.03
2023-01-02T20:32:39.287Z,101620.25
2023-01-02T20:35:09.350Z,101621.88
2023-01-02T20:37:37.884Z,101611.88
2023-01-02T20:40:07.744Z,101603.63
2023-01-02T20:42:37.227Z,101606.75
2023-01-02T20:45:06.793Z,101621.53
2023-01-02T20:47:38.217Z,101621.06
2023-01-02T20:50:17.129Z,101620.59
2023-01-02T20:52:47.729Z,101618.50
2023-01-02T20:55:18.137Z,101618.22
2023-01-02T20:57:48.528Z,101609.06
2023-01-02T21:00:20.596Z,101606.91
2023-01-02T21:02:50.808Z,101611.91
2023-01-02T21:05:19.762Z,101605.66
2023-01-02T21:07:47.857Z,101605.44
2023-01-02T21:10:17.207Z,101615.94
2023-01-02T21:13:03.507Z,101606.00
2023-01-02T21:15:46.674Z,101611.16
2023-01-02T21:18:25.511Z,101608.50
2023-01-02T21:20:57.781Z,101599.53
2023-01-02T21:23:28.065Z,101599.47
2023-01-02T21:25:57.499Z,101604.69
2023-01-02T21:28:27.024Z,101603.84
2023-01-02T21:30:55.627Z,101587.72
2023-01-02T21:33:27.496Z,101594.03
2023-01-02T21:35:57.827Z,101589.72
2023-01-02T21:38:27.696Z,101592.50
2023-01-02T21:41:18.117Z,101586.41
2023-01-02T21:43:50.501Z,101589.25
2023-01-02T21:46:19.925Z,101588.50
2023-01-02T21:48:50.347Z,101583.63
2023-01-02T21:51:19.644Z,101576.97
2023-01-02T21:53:48.311Z,101588.69
2023-01-02T21:56:18.413Z,101576.59
2023-01-02T21:58:47.413Z,101579.44
2023-01-02T22:01:16.141Z,101575.34
2023-01-02T22:03:45.611Z,101573.06
2023-01-02T22:06:15.623Z,101577.84
2023-01-02T22:08:44.311Z,101583.44
2023-01-02T22:11:29.775Z,101586.28
2023-01-02T22:13:57.853Z,101586.78
2023-01-02T22:16:26.958Z,101588.84
2023-01-02T22:18:55.156Z,101580.06
2023-01-02T22:21:25.248Z,101582.84
2023-01-02T22:23:53.621Z,101586.53
2023-01-02T22:26:22.351Z,101577.97
2023-01-02T22:28:50.802Z,101570.91
2023-01-02T22:31:19.606Z,101568.34
2023-01-02T22:36:32.588Z,101575.66
2023-01-02T22:42:57.541Z,101571.47
2023-01-02T22:45:09.866Z,101574.91
2023-01-02T22:47:39.720Z,101560.06
2023-01-02T22:50:12.419Z,101570.72
2023-01-02T22:52:42.328Z,101579.47
2023-01-02T22:55:17.610Z,101573.09
2023-01-02T22:57:52.542Z,101566.91
2023-01-02T23:00:23.864Z,101565.97
2023-01-02T23:02:52.745Z,101565.97
2023-01-02T23:05:24.030Z,101560.81
2023-01-02T23:07:54.257Z,101569.59
2023-01-02T23:10:22.600Z,101571.38
2023-01-02T23:12:54.146Z,101571.28
2023-01-02T23:15:24.594Z,101573.00
2023-01-02T23:18:08.560Z,101571.97
2023-01-02T23:20:38.093Z,101579.88
2023-01-02T23:23:10.088Z,101571.03
2023-01-02T23:25:50.245Z,101570.91
2023-01-02T23:28:39.344Z,101576.25
2023-01-02T23:31:06.877Z,101584.94
2023-01-02T23:33:35.035Z,101574.16
2023-01-02T23:36:03.415Z,101575.97
2023-01-02T23:38:34.443Z,101586.38
2023-01-02T23:41:03.202Z,101579.97
2023-01-02T23:43:31.420Z,101585.22
2023-01-02T23:46:00.209Z,101584.28
2023-01-02T23:48:28.489Z,101579.13
2023-01-02T23:51:00.029Z,101578.09
2023-01-02T23:53:28.947Z,101578.84
2023-01-02T23:55:59.472Z,101569.13
2023-01-02T23:58:27.649Z,101565.44
